createdAt,value
2023-02-23T00:02:08.243Z,-7.30
2023-02-23T00:04:36.280Z,-7.30
2023-02-23T00:07:06.349Z,-7.70
2023-02-23T00:09:37.276Z,-7.40
2023-02-23T00:12:09.715Z,-7.30
2023-02-23T00:14:38.513Z,-7.10
2023-02-23T00:17:14.836Z,-7.40
2023-02-23T00:19:46.019Z,-7.30
2023-02-23T00:22:13.715Z,-7.50
2023-02-23T00:24:43.157Z,-7.60
2023-02-23T00:27:13.455Z,-7.20
2023-02-23T00:29:41.041Z,-7.50
2023-02-23T00:32:11.677Z,-7.20
2023-02-23T00:34:39.452Z,-7.40
2023-02-23T00:37:08.773Z,-7.20
2023-02-23T00:39:36.121Z,-6.90
2023-02-23T00:42:03.942Z,-7.00
2023-02-23T00:44:33.897Z,-6.90
2023-02-23T00:47:02.050Z,-6.80
2023-02-23T00:49:29.538Z,-6.70
2023-02-23T00:51:57.036Z,-6.40
2023-02-23T00:54:24.555Z,-6.90
2023-02-23T00:56:52.401Z,-6.80
2023-02-23T00:59:20.787Z,-6.70
2023-02-23T01:01:48.672Z,-6.90
2023-02-23T01:04:16.929Z,-6.60
2023-02-23T01:06:46.546Z,-5.90
2023-02-23T01:09:22.318Z,-6.70
2023-02-23T01:11:49.713Z,-6.80
2023-02-23T01:14:17.155Z,-6.70
2023-02-23T01:16:44.616Z,-6.80
2023-02-23T01:19:11.979Z,-6.40
2023-02-23T01:21:42.410Z,-6.60
2023-02-23T01:24:10.391Z,-6.20
2023-02-23T01:26:43.013Z,-6.20
2023-02-23T01:29:13.447Z,-6.20
2023-02-23T01:31:43.947Z,-6.20
2023-02-23T01:34:12.851Z,-6.00
2023-02-23T01:36:42.383Z,-6.30
2023-02-23T01:39:13.199Z,-6.60
2023-02-23T01:41:42.567Z,-6.00
2023-02-23T01:44:13.181Z,-6.20
2023-02-23T01:46:46.429Z,-6.10
2023-02-23T01:49:20.718Z,-5.30
2023-02-23T01:51:59.653Z,-5.50
2023-02-23T01:54:31.436Z,-5.90
2023-02-23T01:57:02.734Z,-6.10
2023-02-23T01:59:41.527Z,-6.10
2023-02-23T02:02:09.938Z,-5.70
2023-02-23T02:04:47.879Z,-5.60
2023-02-23T02:07:18.907Z,-5.60
2023-02-23T02:10:07.487Z,-5.70
2023-02-23T02:12:34.867Z,-5.90
2023-02-23T02:15:05.126Z,-5.70
2023-02-23T02:17:53.568Z,-5.60
2023-02-23T02:20:55.398Z,-5.50
2023-02-23T02:23:58.439Z,-5.60
2023-02-23T02:26:35.552Z,-6.20
2023-02-23T02:29:06.006Z,-5.50
2023-02-23T02:31:59.032Z,-5.50
2023-02-23T02:35:02.614Z,-5.30
2023-02-23T02:38:04.134Z,-5.50
2023-02-23T02:40:53.515Z,-5.30
2023-02-23T02:43:47.035Z,-5.30
2023-02-23T02:46:29.237Z,-5.10
2023-02-23T02:49:19.556Z,-5.30
2023-02-23T02:51:51.872Z,-5.10
2023-02-23T02:54:31.962Z,-4.30
2023-02-23T02:57:04.581Z,-5.30
2023-02-23T03:00:01.113Z,-5.20
2023-02-23T03:02:48.164Z,-5.10
2023-02-23T03:05:36.794Z,-5.20
2023-02-23T03:08:55.558Z,-4.80
2023-02-23T03:11:44.095Z,-4.90
2023-02-23T03:14:49.021Z,-5.00
2023-02-23T03:17:47.270Z,-5.20
2023-02-23T03:20:45.209Z,-4.90
2023-02-23T03:23:49.249Z,-4.90
2023-02-23T03:26:41.203Z,-4.90
2023-02-23T03:29:43.916Z,-4.10
2023-02-23T03:33:05.048Z,-4.90
2023-02-23T03:36:11.781Z,-4.80
2023-02-23T03:39:06.047Z,-4.60
2023-02-23T03:41:54.461Z,-4.70
2023-02-23T03:44:58.236Z,-4.70
2023-02-23T03:47:52.557Z,-4.50
2023-02-23T03:50:50.820Z,-4.30
2023-02-23T03:53:45.110Z,-4.40
2023-02-23T03:56:35.465Z,-4.30
2023-02-23T03:59:24.781Z,-4.30
2023-02-23T04:02:13.685Z,-4.10
2023-02-23T04:05:01.855Z,-3.70
2023-02-23T04:07:48.355Z,-4.00
2023-02-23T04:10:35.164Z,-4.10
2023-02-23T04:13:15.361Z,-4.10
2023-02-23T04:16:05.321Z,-3.90
2023-02-23T04:18:37.874Z,-3.90
2023-02-23T04:21:06.964Z,-3.90
2023-02-23T04:23:36.040Z,-3.30
2023-02-23T04:26:05.260Z,-3.90
2023-02-23T04:28:32.640Z,-3.20
2023-02-23T04:31:00.556Z,-3.90
2023-02-23T04:33:28.067Z,-3.80
2023-02-23T04:35:55.664Z,-3.40
2023-02-23T04:38:23.991Z,-3.80
2023-02-23T04:40:51.837Z,-3.60
2023-02-23T04:43:19.289Z,-3.70
2023-02-23T04:45:47.115Z,-3.70
2023-02-23T04:48:14.476Z,-3.80
2023-02-23T04:50:42.020Z,-3.80
2023-02-23T04:53:09.399Z,-3.60
2023-02-23T04:55:36.739Z,-3.90
2023-02-23T04:58:04.523Z,-3.50
2023-02-23T05:00:34.187Z,-3.60
2023-02-23T05:03:01.633Z,-3.50
2023-02-23T05:05:29.344Z,-3.40
2023-02-23T05:07:56.868Z,-3.40
2023-02-23T05:10:25.048Z,-3.50
2023-02-23T05:12:52.409Z,-3.50
2023-02-23T05:15:19.820Z,-3.20
2023-02-23T05:17:48.272Z,-3.50
2023-02-23T05:20:16.181Z,-3.70
2023-02-23T05:22:43.998Z,-3.40
2023-02-23T05:25:12.450Z,-3.40
2023-02-23T05:27:40.631Z,-3.60
2023-02-23T05:30:10.064Z,-4.10
2023-02-23T05:32:37.476Z,-3.80
2023-02-23T05:35:05.379Z,-3.20
2023-02-23T05:37:33.899Z,-3.30
2023-02-23T05:40:01.322Z,-3.20
2023-02-23T05:42:29.022Z,-3.20
2023-02-23T05:44:56.536Z,-3.30
2023-02-23T05:47:23.967Z,-3.00
2023-02-23T05:49:51.338Z,-3.10
2023-02-23T05:52:18.707Z,-3.10
2023-02-23T05:54:46.819Z,-1.50
2023-02-23T05:57:14.286Z,-4.20
2023-02-23T05:59:41.648Z,-1.40
2023-02-23T06:02:09.258Z,-2.90
2023-02-23T06:04:36.564Z,-3.10
2023-02-23T06:07:04.097Z,-3.30
2023-02-23T06:09:31.479Z,-2.90
2023-02-23T06:12:00.892Z,-3.20
2023-02-23T06:14:28.727Z,-3.10
2023-02-23T06:16:56.145Z,-3.00
2023-02-23T06:19:23.492Z,-3.30
2023-02-23T06:21:50.870Z,-2.70
2023-02-23T06:24:19.394Z,-3.00
2023-02-23T06:26:46.771Z,-2.90
2023-02-23T06:29:14.678Z,-2.90
2023-02-23T06:31:42.206Z,-3.20
2023-02-23T06:34:12.072Z,-2.50
2023-02-23T06:36:39.419Z,-3.00
2023-02-23T06:39:06.941Z,-2.80
2023-02-23T06:41:35.632Z,-2.80
2023-02-23T06:44:03.381Z,-2.70
2023-02-23T06:46:30.889Z,-1.50
2023-02-23T06:49:00.181Z,-2.80
2023-02-23T06:51:27.906Z,-2.60
2023-02-23T06:53:55.504Z,-2.30
2023-02-23T06:56:22.992Z,-2.70
2023-02-23T06:58:50.691Z,-3.00
2023-02-23T07:01:20.024Z,-2.90
2023-02-23T07:03:47.678Z,-1.30
2023-02-23T07:06:15.066Z,-2.80
2023-02-23T07:08:42.550Z,-2.80
2023-02-23T07:11:13.369Z,-2.80
2023-02-23T07:13:41.306Z,-3.10
2023-02-23T07:16:11.243Z,-2.60
2023-02-23T07:18:38.721Z,-2.60
2023-02-23T07:21:06.360Z,-2.40
2023-02-23T07:23:34.297Z,-1.20
2023-02-23T07:26:01.954Z,-2.40
2023-02-23T07:28:29.356Z,-2.60
2023-02-23T07:30:58.346Z,-2.50
2023-02-23T07:33:26.259Z,-0.80
2023-02-23T07:35:54.602Z,-2.60
2023-02-23T07:38:22.089Z,-2.60
2023-02-23T07:40:52.954Z,-2.70
2023-02-23T07:43:24.521Z,-2.10
2023-02-23T07:45:52.360Z,-0.60
2023-02-23T07:48:21.171Z,-2.50
2023-02-23T07:50:48.940Z,-2.50
2023-02-23T07:53:16.400Z,-2.30
2023-02-23T07:55:43.764Z,-2.40
2023-02-23T07:58:13.395Z,-2.30
2023-02-23T08:00:41.134Z,-1.70
2023-02-23T08:03:08.426Z,-2.60
2023-02-23T08:05:36.889Z,-2.40
2023-02-23T08:08:04.411Z,-1.70
2023-02-23T08:10:33.799Z,-2.70
2023-02-23T08:13:01.242Z,-2.30
2023-02-23T08:15:28.659Z,-2.50
2023-02-23T08:17:56.119Z,-2.50
2023-02-23T08:20:23.869Z,-1.70
2023-02-23T08:22:58.196Z,-2.40
2023-02-23T08:25:27.477Z,-2.40
2023-02-23T08:27:54.989Z,-2.30
2023-02-23T08:30:24.860Z,-2.20
2023-02-23T08:32:52.352Z,-2.40
2023-02-23T08:35:20.347Z,-2.40
2023-02-23T08:37:47.766Z,-2.20
2023-02-23T08:40:15.754Z,-2.30
2023-02-23T08:42:43.514Z,-1.70
2023-02-23T08:45:14.536Z,-1.70
2023-02-23T08:47:42.063Z,-1.90
2023-02-23T08:50:11.196Z,0.00
2023-02-23T08:52:39.451Z,-2.40
2023-02-23T08:55:07.720Z,-2.40
2023-02-23T08:57:36.207Z,-2.10
2023-02-23T09:00:14.318Z,-2.50
2023-02-23T09:02:43.027Z,-2.20
2023-02-23T09:05:10.954Z,-2.50
2023-02-23T09:07:39.812Z,-1.10
2023-02-23T09:10:07.928Z,-2.30
2023-02-23T09:12:36.716Z,-2.20
2023-02-23T09:15:04.698Z,-2.30
2023-02-23T09:17:32.252Z,-2.20
2023-02-23T09:19:59.842Z,-1.70
2023-02-23T09:22:27.563Z,-0.50
2023-02-23T09:24:54.944Z,-2.50
2023-02-23T09:27:22.278Z,-2.40
2023-02-23T09:29:49.723Z,-2.60
2023-02-23T09:32:17.268Z,-2.20
2023-02-23T09:34:44.912Z,-2.30
2023-02-23T09:37:15.726Z,-2.20
2023-02-23T09:39:45.785Z,-2.30
2023-02-23T09:42:54.362Z,-1.80
2023-02-23T09:45:48.426Z,-1.90
2023-02-23T09:48:28.331Z,-1.90
2023-02-23T09:50:58.181Z,-2.20
2023-02-23T09:53:50.283Z,-1.90
2023-02-23T09:56:21.150Z,-2.00
2023-02-23T09:58:48.793Z,-2.10
2023-02-23T10:01:53.572Z,-2.30
2023-02-23T10:04:31.603Z,-1.70
2023-02-23T10:07:43.546Z,-1.60
2023-02-23T10:10:44.308Z,-2.00
2023-02-23T10:13:33.862Z,-1.60
2023-02-23T10:16:13.888Z,-1.70
2023-02-23T10:18:52.388Z,-1.90
2023-02-23T10:21:36.268Z,-0.50
2023-02-23T10:24:17.729Z,-1.90
2023-02-23T10:26:56.999Z,-1.60
2023-02-23T10:29:30.881Z,-1.90
2023-02-23T10:32:12.623Z,-1.60
2023-02-23T10:34:41.253Z,-1.40
2023-02-23T10:37:13.128Z,1.40
2023-02-23T10:39:41.973Z,0.70
2023-02-23T10:42:15.573Z,1.30
2023-02-23T10:44:45.578Z,-1.60
2023-02-23T10:47:28.789Z,2.00
2023-02-23T10:49:57.715Z,-1.30
2023-02-23T10:52:30.613Z,-1.20
2023-02-23T10:54:59.154Z,-1.30
2023-02-23T10:57:32.946Z,-2.70
2023-02-23T11:00:12.763Z,-1.20
2023-02-23T11:02:41.964Z,-1.20
2023-02-23T11:05:33.946Z,-1.30
2023-02-23T11:11:39.535Z,-1.20
2023-02-23T11:14:28.051Z,-1.00
2023-02-23T11:17:00.744Z,-0.90
2023-02-23T11:19:37.293Z,-1.20
2023-02-23T11:22:22.658Z,0.40
2023-02-23T11:24:50.256Z,-1.20
2023-02-23T11:27:26.217Z,-1.10
2023-02-23T11:29:57.873Z,-1.40
2023-02-23T11:35:17.794Z,-1.20
2023-02-23T11:37:45.458Z,-0.50
2023-02-23T11:40:24.582Z,-1.00
2023-02-23T11:42:58.041Z,-1.20
2023-02-23T11:45:33.675Z,-1.20
2023-02-23T11:48:05.820Z,0.90
2023-02-23T11:50:38.674Z,-1.00
2023-02-23T11:53:19.808Z,-1.10
2023-02-23T11:55:50.477Z,-0.90
2023-02-23T11:58:36.855Z,-1.10
2023-02-23T12:01:12.336Z,-0.90
2023-02-23T12:04:10.385Z,-0.90
2023-02-23T12:06:40.483Z,-0.80
2023-02-23T12:09:26.935Z,-1.10
2023-02-23T12:12:06.854Z,-0.80
2023-02-23T12:14:39.633Z,-0.70
2023-02-23T12:17:19.965Z,-0.30
2023-02-23T12:19:55.578Z,-0.90
2023-02-23T12:22:29.606Z,-0.80
2023-02-23T12:25:02.500Z,-0.70
2023-02-23T12:27:39.110Z,-0.70
2023-02-23T12:30:28.082Z,-0.70
2023-02-23T12:33:01.676Z,-0.60
2023-02-23T12:35:52.059Z,-0.80
2023-02-23T12:38:35.490Z,-0.50
2023-02-23T12:41:12.541Z,-0.60
2023-02-23T12:43:49.535Z,-0.40
2023-02-23T12:46:23.624Z,-0.40
2023-02-23T12:49:14.151Z,-0.70
2023-02-23T12:51:55.758Z,-0.50
2023-02-23T12:54:23.175Z,0.00
2023-02-23T12:57:19.579Z,-0.50
2023-02-23T13:00:32.988Z,-1.00
2023-02-23T13:03:03.488Z,-0.10
2023-02-23T13:05:34.664Z,1.00
2023-02-23T13:08:25.915Z,0.20
2023-02-23T13:11:14.990Z,-0.40
2023-02-23T13:13:55.836Z,-0.20
2023-02-23T13:16:45.293Z,-0.50
2023-02-23T13:19:44.946Z,-0.90
2023-02-23T13:22:26.938Z,-0.30
2023-02-23T13:24:59.283Z,-0.10
2023-02-23T13:27:34.536Z,1.40
2023-02-23T13:30:04.431Z,-0.60
2023-02-23T13:32:34.250Z,-0.40
2023-02-23T13:35:04.022Z,0.70
2023-02-23T13:37:52.960Z,-0.50
2023-02-23T13:40:20.385Z,-0.50
2023-02-23T13:43:22.270Z,0.00
2023-02-23T13:46:02.237Z,0.10
2023-02-23T13:48:47.305Z,0.60
2023-02-23T13:51:38.223Z,0.10
2023-02-23T13:54:13.187Z,-0.10
2023-02-23T13:56:54.975Z,0.00
2023-02-23T13:59:36.933Z,-0.20
2023-02-23T14:02:31.139Z,0.00
2023-02-23T14:05:22.922Z,0.10
2023-02-23T14:08:02.465Z,0.40
2023-02-23T14:10:41.396Z,0.10
2023-02-23T14:13:15.837Z,0.10
2023-02-23T14:15:49.928Z,0.90
2023-02-23T14:18:26.457Z,0.60
2023-02-23T14:21:25.952Z,-0.20
2023-02-23T14:24:14.276Z,0.30
2023-02-23T14:27:06.738Z,0.70
2023-02-23T14:29:41.097Z,-0.10
2023-02-23T14:32:11.700Z,0.40
2023-02-23T14:44:27.264Z,0.40
2023-02-23T14:47:16.716Z,0.40
2023-02-23T14:50:03.956Z,0.40
2023-02-23T14:52:40.940Z,1.00
2023-02-23T14:55:29.916Z,1.30
2023-02-23T14:57:58.478Z,0.60
2023-02-23T15:00:33.885Z,1.30
2023-02-23T15:03:13.757Z,0.50
2023-02-23T15:05:45.484Z,1.00
2023-02-23T15:08:23.259Z,0.60
2023-02-23T15:11:00.867Z,2.30
2023-02-23T15:13:30.785Z,1.50
2023-02-23T15:19:40.292Z,0.70
2023-02-23T15:22:07.912Z,0.70
2023-02-23T15:24:47.825Z,0.60
2023-02-23T15:27:17.891Z,0.70
2023-02-23T15:29:45.605Z,1.50
2023-02-23T15:32:19.872Z,0.60
2023-02-23T15:34:47.604Z,0.10
2023-02-23T15:37:35.350Z,0.70
2023-02-23T15:40:06.896Z,1.40
2023-02-23T15:42:39.555Z,0.30
2023-02-23T15:45:31.277Z,1.20
2023-02-23T15:48:02.617Z,0.30
2023-02-23T15:53:38.961Z,1.90
2023-02-23T15:56:14.603Z,1.10
2023-02-23T15:58:56.539Z,0.70
2023-02-23T16:01:30.497Z,2.50
2023-02-23T16:04:00.809Z,2.40
2023-02-23T16:06:52.862Z,0.60
2023-02-23T16:09:21.286Z,1.40
2023-02-23T16:11:50.630Z,0.50
2023-02-23T16:14:20.331Z,0.70
2023-02-23T16:17:08.473Z,3.30
2023-02-23T16:19:41.451Z,2.70
2023-02-23T16:22:23.354Z,1.30
2023-02-23T16:25:07.138Z,0.50
2023-02-23T16:27:37.325Z,1.20
2023-02-23T16:30:26.716Z,2.50
2023-02-23T16:33:24.885Z,0.80
2023-02-23T16:36:14.469Z,2.60
2023-02-23T16:39:03.042Z,1.40
2023-02-23T16:41:33.915Z,0.90
2023-02-23T16:44:03.321Z,1.40
2023-02-23T16:47:05.640Z,1.20
2023-02-23T16:49:33.146Z,0.90
2023-02-23T16:52:01.926Z,1.00
2023-02-23T16:54:31.410Z,2.70
2023-02-23T16:56:58.834Z,1.80
2023-02-23T16:59:26.556Z,0.60
2023-02-23T17:01:54.300Z,0.80
2023-02-23T17:04:21.915Z,0.90
2023-02-23T17:06:55.838Z,0.80
2023-02-23T17:09:24.234Z,1.00
2023-02-23T17:11:51.833Z,0.50
2023-02-23T17:14:32.232Z,2.60
2023-02-23T17:17:02.268Z,2.80
2023-02-23T17:19:29.712Z,1.20
2023-02-23T17:21:57.059Z,2.50
2023-02-23T17:24:26.302Z,2.60
2023-02-23T17:26:54.478Z,0.90
2023-02-23T17:29:21.894Z,1.00
2023-02-23T17:31:50.731Z,2.50
2023-02-23T17:34:18.360Z,2.80
2023-02-23T17:36:45.878Z,0.80
2023-02-23T17:39:14.290Z,1.20
2023-02-23T17:41:41.960Z,2.70
2023-02-23T17:44:09.919Z,1.10
2023-02-23T17:46:37.359Z,2.10
2023-02-23T17:49:04.854Z,2.60
2023-02-23T17:51:32.321Z,1.00
2023-02-23T17:53:59.638Z,0.60
2023-02-23T17:56:27.299Z,1.20
2023-02-23T17:58:54.887Z,1.30
2023-02-23T18:01:22.657Z,1.00
2023-02-23T18:03:51.010Z,2.00
2023-02-23T18:06:19.800Z,0.40
2023-02-23T18:08:47.569Z,1.20
2023-02-23T18:11:16.932Z,2.90
2023-02-23T18:13:46.867Z,0.90
2023-02-23T18:16:16.128Z,1.30
2023-02-23T18:18:46.779Z,2.70
2023-02-23T18:21:22.338Z,2.70
2023-02-23T18:23:51.222Z,1.30
2023-02-23T18:26:22.127Z,1.10
2023-02-23T18:28:51.399Z,1.20
2023-02-23T18:31:25.544Z,1.00
2023-02-23T18:33:53.595Z,1.80
2023-02-23T18:36:31.152Z,1.20
2023-02-23T18:38:59.598Z,1.10
2023-02-23T18:41:33.430Z,1.20
2023-02-23T18:44:03.244Z,2.60
2023-02-23T18:46:31.154Z,1.90
2023-02-23T18:48:58.979Z,0.80
2023-02-23T18:51:26.694Z,2.20
2023-02-23T18:53:54.923Z,1.10
2023-02-23T18:56:27.950Z,2.50
2023-02-23T18:58:58.362Z,3.00
2023-02-23T19:01:28.243Z,3.10
2023-02-23T19:03:59.019Z,2.90
2023-02-23T19:06:27.937Z,2.60
2023-02-23T19:08:59.627Z,2.20
2023-02-23T19:11:29.627Z,1.90
2023-02-23T19:13:59.571Z,1.10
2023-02-23T19:16:28.508Z,3.50
2023-02-23T19:18:56.036Z,2.80
2023-02-23T19:21:24.140Z,0.90
2023-02-23T19:23:52.506Z,0.60
2023-02-23T19:26:21.785Z,2.80
2023-02-23T19:28:49.428Z,2.00
2023-02-23T19:31:21.212Z,1.10
2023-02-23T19:33:50.167Z,2.50
2023-02-23T19:36:21.049Z,2.70
2023-02-23T19:38:48.903Z,2.90
2023-02-23T19:41:20.180Z,0.90
2023-02-23T19:43:48.125Z,1.00
2023-02-23T19:46:17.383Z,1.10
2023-02-23T19:48:52.057Z,1.20
2023-02-23T19:51:20.342Z,1.60
2023-02-23T19:53:48.040Z,1.50
2023-02-23T19:56:17.079Z,1.90
2023-02-23T19:58:48.433Z,1.80
2023-02-23T20:01:18.695Z,1.50
2023-02-23T20:03:49.947Z,3.00
2023-02-23T20:06:18.414Z,1.80
2023-02-23T20:08:46.204Z,1.40
2023-02-23T20:11:15.593Z,1.40
2023-02-23T20:13:43.075Z,1.70
2023-02-23T20:16:15.055Z,1.40
2023-02-23T20:18:42.862Z,1.60
2023-02-23T20:21:18.225Z,2.00
2023-02-23T20:23:46.947Z,1.50
2023-02-23T20:26:26.718Z,2.10
2023-02-23T20:28:55.588Z,1.50
2023-02-23T20:31:29.471Z,2.40
2023-02-23T20:34:00.798Z,1.20
2023-02-23T20:36:28.160Z,2.00
2023-02-23T20:38:55.488Z,1.80
2023-02-23T20:41:23.574Z,1.50
2023-02-23T20:43:51.673Z,2.70
2023-02-23T20:46:19.905Z,2.60
2023-02-23T20:48:49.249Z,1.50
2023-02-23T20:51:19.492Z,1.80
2023-02-23T20:53:48.845Z,3.20
2023-02-23T20:56:18.780Z,1.80
2023-02-23T20:58:46.596Z,2.20
2023-02-23T21:01:17.016Z,1.60
2023-02-23T21:03:44.703Z,2.00
2023-02-23T21:06:12.292Z,1.70
2023-02-23T21:08:42.432Z,2.40
2023-02-23T21:11:09.936Z,1.90
2023-02-23T21:13:37.399Z,1.40
2023-02-23T21:16:05.166Z,2.10
2023-02-23T21:18:32.742Z,1.50
2023-02-23T21:21:09.712Z,1.40
2023-02-23T21:23:39.936Z,2.90
2023-02-23T21:26:07.850Z,3.20
2023-02-23T21:28:35.720Z,1.40
2023-02-23T21:31:03.292Z,1.30
2023-02-23T21:33:30.946Z,3.00
2023-02-23T21:35:59.151Z,1.10
2023-02-23T21:38:27.454Z,1.30
2023-02-23T21:40:54.977Z,3.20
2023-02-23T21:43:23.313Z,1.70
2023-02-23T21:45:50.719Z,1.30
2023-02-23T21:48:18.220Z,1.80
2023-02-23T21:50:45.637Z,1.20
2023-02-23T21:53:13.003Z,1.20
2023-02-23T21:55:40.569Z,1.20
2023-02-23T21:58:08.286Z,2.20
2023-02-23T22:00:36.147Z,1.20
2023-02-23T22:03:03.793Z,2.20
2023-02-23T22:05:33.557Z,1.10
2023-02-23T22:08:01.060Z,1.90
2023-02-23T22:10:28.546Z,1.10
2023-02-23T22:12:56.337Z,1.10
2023-02-23T22:15:30.223Z,2.30
2023-02-23T22:17:57.628Z,1.00
2023-02-23T22:20:26.309Z,2.00
2023-02-23T22:22:53.776Z,1.80
2023-02-23T22:25:21.229Z,1.10
2023-02-23T22:27:48.687Z,1.10
2023-02-23T22:30:16.354Z,1.10
2023-02-23T22:32:44.229Z,1.20
2023-02-23T22:35:11.936Z,1.40
2023-02-23T22:37:39.548Z,1.10
2023-02-23T22:40:12.498Z,1.00
2023-02-23T22:42:39.841Z,1.10
2023-02-23T22:45:07.990Z,2.00
2023-02-23T22:47:35.576Z,1.10
2023-02-23T22:50:06.340Z,2.10
2023-02-23T22:52:34.752Z,1.00
2023-02-23T22:55:03.864Z,1.00
2023-02-23T22:57:31.240Z,1.20
2023-02-23T23:00:06.019Z,1.10
2023-02-23T23:02:33.808Z,2.30
2023-02-23T23:05:02.276Z,3.00
2023-02-23T23:07:31.782Z,0.80
2023-02-23T23:10:03.441Z,0.90
2023-02-23T23:12:31.987Z,3.30
2023-02-23T23:15:01.392Z,2.80
2023-02-23T23:17:30.864Z,3.50
2023-02-23T23:20:00.406Z,2.50
2023-02-23T23:22:29.292Z,2.00
2023-02-23T23:24:57.182Z,1.10
2023-02-23T23:27:24.900Z,1.00
2023-02-23T23:29:52.331Z,0.90
2023-02-23T23:32:21.471Z,1.50
2023-02-23T23:34:49.503Z,0.80
2023-02-23T23:37:19.230Z,1.30
2023-02-23T23:39:46.768Z,2.60
2023-02-23T23:42:14.242Z,2.30
2023-02-23T23:44:41.735Z,2.60
2023-02-23T23:47:09.130Z,1.00
2023-02-23T23:49:41.079Z,0.90
2023-02-23T23:52:09.086Z,1.10
2023-02-23T23:54:39.428Z,0.70
2023-02-23T23:57:07.426Z,1.40
2023-02-23T23:59:35.504Z,2.40
